sensor_id;sensor_type;location;lat;lon;timestamp;temperature;humidity
9486;DHT22;4781;48.776;9.200;2023-04-01T00:01:15;8.40;99.90
9486;DHT22;4781;48.776;9.200;2023-04-01T00:03:44;8.40;99.90
9486;DHT22;4781;48.776;9.200;2023-04-01T00:06:14;8.40;99.90
9486;DHT22;4781;48.776;9.200;2023-04-01T00:08:43;8.40;99.90
9486;DHT22;4781;48.776;9.200;2023-04-01T00:11:13;8.40;99.90
9486;DHT22;4781;48.776;9.200;2023-04-01T00:13:41;8.50;99.90
9486;DHT22;4781;48.776;9.200;2023-04-01T00:16:10;8.50;99.90
9486;DHT22;4781;48.776;9.200;2023-04-01T00:18:39;8.50;99.90
9486;DHT22;4781;48.776;9.200;2023-04-01T00:21:08;8.50;99.90
9486;DHT22;4781;48.776;9.200;2023-04-01T00:23:36;8.50;99.90
9486;DHT22;4781;48.776;9.200;2023-04-01T00:26:05;8.50;99.90
9486;DHT22;4781;48.776;9.200;2023-04-01T00:28:34;8.50;99.90
9486;DHT22;4781;48.776;9.200;2023-04-01T00:31:08;8.30;99.90
9486;DHT22;4781;48.776;9.200;2023-04-01T00:33:38;8.50;99.90
9486;DHT22;4781;48.776;9.200;2023-04-01T00:36:12;8.50;99.90
9486;DHT22;4781;48.776;9.200;2023-04-01T00:38:42;8.50;99.90
9486;DHT22;4781;48.776;9.200;2023-04-01T00:41:13;8.50;99.90
9486;DHT22;4781;48.776;9.200;2023-04-01T00:43:45;8.50;99.90
9486;DHT22;4781;48.776;9.200;2023-04-01T00:46:15;8.50;99.90
9486;DHT22;4781;48.776;9.200;2023-04-01T00:48:55;8.50;99.90
9486;DHT22;4781;48.776;9.200;2023-04-01T00:51:26;8.50;99.90
9486;DHT22;4781;48.776;9.200;2023-04-01T00:53:57;8.50;99.90
9486;DHT22;4781;48.776;9.200;2023-04-01T00:56:33;8.50;99.90
9486;DHT22;4781;48.776;9.200;2023-04-01T00:59:13;8.50;99.90
9486;DHT22;4781;48.776;9.200;2023-04-01T01:01:42;8.50;99.90
9486;DHT22;4781;48.776;9.200;2023-04-01T01:04:28;8.50;99.90
9486;DHT22;4781;48.776;9.200;2023-04-01T01:07:27;8.50;99.90
9486;DHT22;4781;48.776;9.200;2023-04-01T01:13:31;8.50;99.90
9486;DHT22;4781;48.776;9.200;2023-04-01T01:16:10;8.50;99.90
9486;DHT22;4781;48.776;9.200;2023-04-01T01:18:44;8.40;99.90
9486;DHT22;4781;48.776;9.200;2023-04-01T01:26:59;8.40;99.90
9486;DHT22;4781;48.776;9.200;2023-04-01T01:35:54;8.50;99.90
9486;DHT22;4781;48.776;9.200;2023-04-01T01:38:26;8.40;99.90
9486;DHT22;4781;48.776;9.200;2023-04-01T01:40:56;8.40;99.90
9486;DHT22;4781;48.776;9.200;2023-04-01T01:43:29;8.40;99.90
9486;DHT22;4781;48.776;9.200;2023-04-01T01:46:01;8.50;99.90
9486;DHT22;4781;48.776;9.200;2023-04-01T01:48:34;8.50;99.90
9486;DHT22;4781;48.776;9.200;2023-04-01T01:51:04;8.40;99.90
9486;DHT22;4781;48.776;9.200;2023-04-01T01:53:33;8.40;99.90
9486;DHT22;4781;48.776;9.200;2023-04-01T01:56:03;8.40;99.90
9486;DHT22;4781;48.776;9.200;2023-04-01T01:58:43;8.40;99.90
9486;DHT22;4781;48.776;9.200;2023-04-01T02:01:16;8.30;99.90
9486;DHT22;4781;48.776;9.200;2023-04-01T02:03:47;8.30;99.90
9486;DHT22;4781;48.776;9.200;2023-04-01T02:06:18;8.30;99.90
9486;DHT22;4781;48.776;9.200;2023-04-01T02:09:00;8.30;99.90
9486;DHT22;4781;48.776;9.200;2023-04-01T02:11:36;8.30;99.90
9486;DHT22;4781;48.776;9.200;2023-04-01T02:14:09;8.30;99.90
9486;DHT22;4781;48.776;9.200;2023-04-01T02:19:38;8.20;99.90
9486;DHT22;4781;48.776;9.200;2023-04-01T02:22:10;8.30;99.90
9486;DHT22;4781;48.776;9.200;2023-04-01T02:24:40;8.30;99.90
9486;DHT22;4781;48.776;9.200;2023-04-01T02:27:10;8.30;99.90
9486;DHT22;4781;48.776;9.200;2023-04-01T02:29:39;8.20;99.90
9486;DHT22;4781;48.776;9.200;2023-04-01T02:32:09;8.20;99.90
9486;DHT22;4781;48.776;9.200;2023-04-01T02:34:38;8.30;99.90
9486;DHT22;4781;48.776;9.200;2023-04-01T02:37:06;8.20;99.90
9486;DHT22;4781;48.776;9.200;2023-04-01T02:39:35;8.20;99.90
9486;DHT22;4781;48.776;9.200;2023-04-01T02:42:03;8.20;99.90
9486;DHT22;4781;48.776;9.200;2023-04-01T02:44:32;8.20;99.90
9486;DHT22;4781;48.776;9.200;2023-04-01T02:47:00;8.30;99.90
9486;DHT22;4781;48.776;9.200;2023-04-01T02:49:29;8.20;99.90
9486;DHT22;4781;48.776;9.200;2023-04-01T02:51:57;8.20;99.90
9486;DHT22;4781;48.776;9.200;2023-04-01T02:54:25;8.20;99.90
9486;DHT22;4781;48.776;9.200;2023-04-01T02:56:54;8.10;99.90
9486;DHT22;4781;48.776;9.200;2023-04-01T02:59:22;8.10;99.90
9486;DHT22;4781;48.776;9.200;2023-04-01T03:01:51;8.10;99.90
9486;DHT22;4781;48.776;9.200;2023-04-01T03:04:19;8.10;99.90
9486;DHT22;4781;48.776;9.200;2023-04-01T03:06:47;8.10;99.90
9486;DHT22;4781;48.776;9.200;2023-04-01T03:09:16;8.10;99.90
9486;DHT22;4781;48.776;9.200;2023-04-01T03:11:44;8.00;99.90
9486;DHT22;4781;48.776;9.200;2023-04-01T03:14:13;8.00;99.90
9486;DHT22;4781;48.776;9.200;2023-04-01T03:16:41;8.00;99.90
9486;DHT22;4781;48.776;9.200;2023-04-01T03:19:10;8.00;99.90
9486;DHT22;4781;48.776;9.200;2023-04-01T03:21:38;8.00;99.90
9486;DHT22;4781;48.776;9.200;2023-04-01T03:24:07;8.00;99.90
9486;DHT22;4781;48.776;9.200;2023-04-01T03:26:35;7.90;99.90
9486;DHT22;4781;48.776;9.200;2023-04-01T03:29:03;7.90;99.90
9486;DHT22;4781;48.776;9.200;2023-04-01T03:31:32;7.90;99.90
9486;DHT22;4781;48.776;9.200;2023-04-01T03:34:01;7.90;99.90
9486;DHT22;4781;48.776;9.200;2023-04-01T03:36:29;7.90;99.90
9486;DHT22;4781;48.776;9.200;2023-04-01T03:38:57;7.90;99.90
9486;DHT22;4781;48.776;9.200;2023-04-01T03:41:26;7.90;99.90
9486;DHT22;4781;48.776;9.200;2023-04-01T03:43:54;7.90;99.90
9486;DHT22;4781;48.776;9.200;2023-04-01T03:46:22;7.90;99.90
9486;DHT22;4781;48.776;9.200;2023-04-01T03:48:51;8.00;99.90
9486;DHT22;4781;48.776;9.200;2023-04-01T03:51:19;8.00;99.90
9486;DHT22;4781;48.776;9.200;2023-04-01T03:53:48;8.00;99.90
9486;DHT22;4781;48.776;9.200;2023-04-01T03:56:17;8.00;99.90
9486;DHT22;4781;48.776;9.200;2023-04-01T03:58:45;8.00;99.90
9486;DHT22;4781;48.776;9.200;2023-04-01T04:01:15;8.00;99.90
9486;DHT22;4781;48.776;9.200;2023-04-01T04:03:47;8.00;99.90
9486;DHT22;4781;48.776;9.200;2023-04-01T04:06:18;7.90;99.90
9486;DHT22;4781;48.776;9.200;2023-04-01T04:08:47;7.90;99.90
9486;DHT22;4781;48.776;9.200;2023-04-01T04:11:16;7.90;99.90
9486;DHT22;4781;48.776;9.200;2023-04-01T04:13:49;7.90;99.90
9486;DHT22;4781;48.776;9.200;2023-04-01T04:16:18;7.90;99.90
9486;DHT22;4781;48.776;9.200;2023-04-01T04:18:47;7.90;99.90
9486;DHT22;4781;48.776;9.200;2023-04-01T04:21:16;7.80;99.90
9486;DHT22;4781;48.776;9.200;2023-04-01T04:23:44;7.80;99.90
9486;DHT22;4781;48.776;9.200;2023-04-01T04:26:14;7.80;99.90
9486;DHT22;4781;48.776;9.200;2023-04-01T04:28:42;7.80;99.90
9486;DHT22;4781;48.776;9.200;2023-04-01T04:31:11;7.80;99.90
9486;DHT22;4781;48.776;9.200;2023-04-01T04:33:39;7.70;99.90
9486;DHT22;4781;48.776;9.200;2023-04-01T04:36:08;7.70;99.90
9486;DHT22;4781;48.776;9.200;2023-04-01T04:38:36;7.60;99.90
9486;DHT22;4781;48.776;9.200;2023-04-01T04:41:10;7.60;99.90
9486;DHT22;4781;48.776;9.200;2023-04-01T04:43:41;7.60;99.90
9486;DHT22;4781;48.776;9.200;2023-04-01T04:46:11;7.50;99.90
9486;DHT22;4781;48.776;9.200;2023-04-01T04:48:40;7.50;99.90
9486;DHT22;4781;48.776;9.200;2023-04-01T04:51:18;7.50;99.90
9486;DHT22;4781;48.776;9.200;2023-04-01T04:53:47;7.50;99.90
9486;DHT22;4781;48.776;9.200;2023-04-01T04:56:21;7.50;99.90
9486;DHT22;4781;48.776;9.200;2023-04-01T04:58:52;7.50;99.90
9486;DHT22;4781;48.776;9.200;2023-04-01T05:01:20;7.50;99.90
9486;DHT22;4781;48.776;9.200;2023-04-01T05:03:48;7.50;99.90
9486;DHT22;4781;48.776;9.200;2023-04-01T05:06:20;7.50;99.90
9486;DHT22;4781;48.776;9.200;2023-04-01T05:08:48;7.50;99.90
9486;DHT22;4781;48.776;9.200;2023-04-01T05:11:18;7.50;99.90
9486;DHT22;4781;48.776;9.200;2023-04-01T05:13:48;7.50;99.90
9486;DHT22;4781;48.776;9.200;2023-04-01T05:16:19;7.50;99.90
9486;DHT22;4781;48.776;9.200;2023-04-01T05:18:48;7.50;99.90
9486;DHT22;4781;48.776;9.200;2023-04-01T05:21:16;7.60;99.90
9486;DHT22;4781;48.776;9.200;2023-04-01T05:23:44;7.60;99.90
9486;DHT22;4781;48.776;9.200;2023-04-01T05:26:14;7.60;99.90
9486;DHT22;4781;48.776;9.200;2023-04-01T05:28:42;7.70;99.90
9486;DHT22;4781;48.776;9.200;2023-04-01T05:31:11;7.70;99.90
9486;DHT22;4781;48.776;9.200;2023-04-01T05:33:39;7.70;99.90
9486;DHT22;4781;48.776;9.200;2023-04-01T05:36:15;7.70;99.90
9486;DHT22;4781;48.776;9.200;2023-04-01T05:38:44;7.80;99.90
9486;DHT22;4781;48.776;9.200;2023-04-01T05:41:15;7.80;99.90
9486;DHT22;4781;48.776;9.200;2023-04-01T05:43:43;7.90;99.90
9486;DHT22;4781;48.776;9.200;2023-04-01T05:46:12;7.90;99.90
9486;DHT22;4781;48.776;9.200;2023-04-01T05:48:40;8.00;99.90
9486;DHT22;4781;48.776;9.200;2023-04-01T05:51:13;8.00;99.90
9486;DHT22;4781;48.776;9.200;2023-04-01T05:53:42;8.00;99.90
9486;DHT22;4781;48.776;9.200;2023-04-01T05:56:11;8.10;99.90
9486;DHT22;4781;48.776;9.200;2023-04-01T05:58:40;8.20;99.90
9486;DHT22;4781;48.776;9.200;2023-04-01T06:01:10;8.20;99.90
9486;DHT22;4781;48.776;9.200;2023-04-01T06:03:39;8.20;99.90
9486;DHT22;4781;48.776;9.200;2023-04-01T06:06:26;8.30;99.90
9486;DHT22;4781;48.776;9.200;2023-04-01T06:08:52;8.30;99.90
9486;DHT22;4781;48.776;9.200;2023-04-01T06:11:44;8.30;99.90
9486;DHT22;4781;48.776;9.200;2023-04-01T06:17:20;8.50;99.90
9486;DHT22;4781;48.776;9.200;2023-04-01T06:20:22;8.50;99.90
9486;DHT22;4781;48.776;9.200;2023-04-01T06:22:38;8.60;99.90
9486;DHT22;4781;48.776;9.200;2023-04-01T06:25:29;8.60;99.90
9486;DHT22;4781;48.776;9.200;2023-04-01T06:30:57;8.70;99.90
9486;DHT22;4781;48.776;9.200;2023-04-01T06:36:42;8.80;99.90
9486;DHT22;4781;48.776;9.200;2023-04-01T06:39:40;8.80;99.90
9486;DHT22;4781;48.776;9.200;2023-04-01T06:42:40;8.80;99.90
9486;DHT22;4781;48.776;9.200;2023-04-01T06:45:49;8.80;99.90
9486;DHT22;4781;48.776;9.200;2023-04-01T06:51:33;8.90;99.90
9486;DHT22;4781;48.776;9.200;2023-04-01T06:54:29;8.90;99.90
9486;DHT22;4781;48.776;9.200;2023-04-01T06:57:03;8.90;99.90
9486;DHT22;4781;48.776;9.200;2023-04-01T06:59:36;8.90;99.90
9486;DHT22;4781;48.776;9.200;2023-04-01T07:04:51;8.90;99.90
9486;DHT22;4781;48.776;9.200;2023-04-01T07:07:54;9.00;99.90
9486;DHT22;4781;48.776;9.200;2023-04-01T07:13:31;9.00;99.90
9486;DHT22;4781;48.776;9.200;2023-04-01T07:16:12;9.00;99.90
9486;DHT22;4781;48.776;9.200;2023-04-01T07:18:54;9.10;99.90
9486;DHT22;4781;48.776;9.200;2023-04-01T07:21:41;9.10;99.90
9486;DHT22;4781;48.776;9.200;2023-04-01T07:24:27;9.10;99.90
9486;DHT22;4781;48.776;9.200;2023-04-01T07:26:57;9.10;99.90
9486;DHT22;4781;48.776;9.200;2023-04-01T07:29:26;9.10;99.90
9486;DHT22;4781;48.776;9.200;2023-04-01T07:46:23;9.10;99.90
9486;DHT22;4781;48.776;9.200;2023-04-01T07:49:14;9.10;99.90
9486;DHT22;4781;48.776;9.200;2023-04-01T07:52:10;9.20;99.90
9486;DHT22;4781;48.776;9.200;2023-04-01T07:54:50;9.20;99.90
9486;DHT22;4781;48.776;9.200;2023-04-01T08:00:57;9.20;99.90
9486;DHT22;4781;48.776;9.200;2023-04-01T08:03:48;9.30;99.90
9486;DHT22;4781;48.776;9.200;2023-04-01T08:06:36;9.30;99.90
9486;DHT22;4781;48.776;9.200;2023-04-01T08:09:33;9.40;99.90
9486;DHT22;4781;48.776;9.200;2023-04-01T08:12:27;9.40;99.90
9486;DHT22;4781;48.776;9.200;2023-04-01T08:20:54;9.50;99.90
9486;DHT22;4781;48.776;9.200;2023-04-01T08:23:29;9.50;99.90
9486;DHT22;4781;48.776;9.200;2023-04-01T08:26:22;9.50;99.90
9486;DHT22;4781;48.776;9.200;2023-04-01T08:29:19;9.50;99.90
9486;DHT22;4781;48.776;9.200;2023-04-01T08:32:03;9.60;99.90
9486;DHT22;4781;48.776;9.200;2023-04-01T08:34:37;9.60;99.90
9486;DHT22;4781;48.776;9.200;2023-04-01T08:37:19;9.60;99.90
9486;DHT22;4781;48.776;9.200;2023-04-01T08:40:16;9.50;99.90
9486;DHT22;4781;48.776;9.200;2023-04-01T08:42:55;9.50;99.90
9486;DHT22;4781;48.776;9.200;2023-04-01T08:54:14;9.20;99.90
9486;DHT22;4781;48.776;9.200;2023-04-01T08:57:03;9.00;99.90
9486;DHT22;4781;48.776;9.200;2023-04-01T09:06:21;8.80;99.90
9486;DHT22;4781;48.776;9.200;2023-04-01T09:12:31;8.70;99.90
9486;DHT22;4781;48.776;9.200;2023-04-01T09:21:03;8.90;99.90
9486;DHT22;4781;48.776;9.200;2023-04-01T09:38:42;9.40;99.90
9486;DHT22;4781;48.776;9.200;2023-04-01T09:41:27;9.50;99.90
9486;DHT22;4781;48.776;9.200;2023-04-01T09:44:29;9.60;99.90
9486;DHT22;4781;48.776;9.200;2023-04-01T09:50:05;9.50;99.90
9486;DHT22;4781;48.776;9.200;2023-04-01T09:52:50;9.40;99.90
9486;DHT22;4781;48.776;9.200;2023-04-01T10:07:28;9.40;99.90
9486;DHT22;4781;48.776;9.200;2023-04-01T10:22:39;9.60;99.90
9486;DHT22;4781;48.776;9.200;2023-04-01T10:29:00;9.70;99.90
9486;DHT22;4781;48.776;9.200;2023-04-01T10:44:07;10.20;99.90
9486;DHT22;4781;48.776;9.200;2023-04-01T11:20:28;10.30;99.90
9486;DHT22;4781;48.776;9.200;2023-04-01T11:34:57;10.90;99.90
9486;DHT22;4781;48.776;9.200;2023-04-01T11:37:52;11.00;99.90
9486;DHT22;4781;48.776;9.200;2023-04-01T11:46:37;11.40;99.90
9486;DHT22;4781;48.776;9.200;2023-04-01T12:01:48;11.10;99.90
9486;DHT22;4781;48.776;9.200;2023-04-01T12:07:59;11.00;99.90
9486;DHT22;4781;48.776;9.200;2023-04-01T12:25:52;10.40;99.90
9486;DHT22;4781;48.776;9.200;2023-04-01T12:28:54;10.60;99.90
9486;DHT22;4781;48.776;9.200;2023-04-01T12:37:17;10.70;99.90
9486;DHT22;4781;48.776;9.200;2023-04-01T12:49:08;10.90;99.90
9486;DHT22;4781;48.776;9.200;2023-04-01T13:00:39;11.20;99.90
9486;DHT22;4781;48.776;9.200;2023-04-01T13:06:20;11.30;99.90
9486;DHT22;4781;48.776;9.200;2023-04-01T13:09:19;11.20;99.90
9486;DHT22;4781;48.776;9.200;2023-04-01T13:15:23;11.10;99.90
9486;DHT22;4781;48.776;9.200;2023-04-01T13:21:08;11.20;99.90
9486;DHT22;4781;48.776;9.200;2023-04-01T13:36:00;11.00;99.90
9486;DHT22;4781;48.776;9.200;2023-04-01T13:38:58;11.10;99.90
9486;DHT22;4781;48.776;9.200;2023-04-01T13:47:10;11.10;99.90
9486;DHT22;4781;48.776;9.200;2023-04-01T13:58:43;11.10;99.90
9486;DHT22;4781;48.776;9.200;2023-04-01T14:07:35;11.20;99.90
9486;DHT22;4781;48.776;9.200;2023-04-01T14:10:17;11.20;99.90
9486;DHT22;4781;48.776;9.200;2023-04-01T14:21:52;10.90;99.90
9486;DHT22;4781;48.776;9.200;2023-04-01T14:30:52;10.70;99.90
9486;DHT22;4781;48.776;9.200;2023-04-01T14:33:57;10.70;99.90
9486;DHT22;4781;48.776;9.200;2023-04-01T14:45:30;10.60;99.90
9486;DHT22;4781;48.776;9.200;2023-04-01T14:51:03;10.60;99.90
9486;DHT22;4781;48.776;9.200;2023-04-01T14:54:01;10.50;99.90
9486;DHT22;4781;48.776;9.200;2023-04-01T14:56:37;10.60;99.90
9486;DHT22;4781;48.776;9.200;2023-04-01T14:59:14;10.70;99.90
9486;DHT22;4781;48.776;9.200;2023-04-01T15:08:00;10.70;99.90
9486;DHT22;4781;48.776;9.200;2023-04-01T15:10:43;10.70;99.90
9486;DHT22;4781;48.776;9.200;2023-04-01T15:22:29;10.60;99.90
9486;DHT22;4781;48.776;9.200;2023-04-01T15:37:16;10.70;99.90
9486;DHT22;4781;48.776;9.200;2023-04-01T15:39:57;10.70;99.90
9486;DHT22;4781;48.776;9.200;2023-04-01T15:55:03;10.60;99.90
9486;DHT22;4781;48.776;9.200;2023-04-01T15:57:33;10.60;99.90
9486;DHT22;4781;48.776;9.200;2023-04-01T16:00:24;10.60;99.90
9486;DHT22;4781;48.776;9.200;2023-04-01T16:11:35;10.50;99.90
9486;DHT22;4781;48.776;9.200;2023-04-01T16:14:25;10.60;99.90
9486;DHT22;4781;48.776;9.200;2023-04-01T16:17:24;10.50;99.90
9486;DHT22;4781;48.776;9.200;2023-04-01T16:20:18;10.50;99.90
9486;DHT22;4781;48.776;9.200;2023-04-01T16:23:10;10.50;99.90
9486;DHT22;4781;48.776;9.200;2023-04-01T16:26:13;10.50;99.90
9486;DHT22;4781;48.776;9.200;2023-04-01T16:29:12;10.50;99.90
9486;DHT22;4781;48.776;9.200;2023-04-01T16:32:14;10.40;99.90
9486;DHT22;4781;48.776;9.200;2023-04-01T16:37:47;10.30;99.90
9486;DHT22;4781;48.776;9.200;2023-04-01T16:42:57;10.40;99.90
9486;DHT22;4781;48.776;9.200;2023-04-01T16:45:53;10.40;99.90
9486;DHT22;4781;48.776;9.200;2023-04-01T16:48:35;10.70;99.90
9486;DHT22;4781;48.776;9.200;2023-04-01T16:51:18;10.30;99.90
9486;DHT22;4781;48.776;9.200;2023-04-01T16:54:12;10.40;99.90
9486;DHT22;4781;48.776;9.200;2023-04-01T16:56:48;10.40;99.90
9486;DHT22;4781;48.776;9.200;2023-04-01T16:59:27;10.40;99.90
9486;DHT22;4781;48.776;9.200;2023-04-01T17:05:19;10.30;99.90
9486;DHT22;4781;48.776;9.200;2023-04-01T17:10:32;10.40;99.90
9486;DHT22;4781;48.776;9.200;2023-04-01T17:13:33;10.40;99.90
9486;DHT22;4781;48.776;9.200;2023-04-01T17:16:27;10.50;99.90
9486;DHT22;4781;48.776;9.200;2023-04-01T17:30:44;10.40;99.90
9486;DHT22;4781;48.776;9.200;2023-04-01T17:47:52;10.40;99.90
9486;DHT22;4781;48.776;9.200;2023-04-01T17:54:02;10.40;99.90
9486;DHT22;4781;48.776;9.200;2023-04-01T17:59:54;10.30;99.90
9486;DHT22;4781;48.776;9.200;2023-04-01T18:03:00;10.40;99.90
9486;DHT22;4781;48.776;9.200;2023-04-01T18:05:52;10.30;99.90
9486;DHT22;4781;48.776;9.200;2023-04-01T18:08:33;10.30;99.90
9486;DHT22;4781;48.776;9.200;2023-04-01T18:11:34;10.30;99.90
9486;DHT22;4781;48.776;9.200;2023-04-01T18:17:24;10.30;99.90
9486;DHT22;4781;48.776;9.200;2023-04-01T18:22:59;10.20;99.90
9486;DHT22;4781;48.776;9.200;2023-04-01T18:25:52;10.10;99.90
9486;DHT22;4781;48.776;9.200;2023-04-01T18:28:33;10.10;99.90
9486;DHT22;4781;48.776;9.200;2023-04-01T18:31:07;10.00;99.90
9486;DHT22;4781;48.776;9.200;2023-04-01T18:34:07;10.00;99.90
9486;DHT22;4781;48.776;9.200;2023-04-01T18:36:55;9.90;99.90
9486;DHT22;4781;48.776;9.200;2023-04-01T18:39:40;9.80;99.90
9486;DHT22;4781;48.776;9.200;2023-04-01T18:45:19;9.70;99.90
9486;DHT22;4781;48.776;9.200;2023-04-01T18:53:40;9.50;99.90
9486;DHT22;4781;48.776;9.200;2023-04-01T19:07:49;9.10;99.90
9486;DHT22;4781;48.776;9.200;2023-04-01T19:10:40;9.00;99.90
9486;DHT22;4781;48.776;9.200;2023-04-01T19:13:23;9.00;99.90
9486;DHT22;4781;48.776;9.200;2023-04-01T19:16:25;8.90;99.90
9486;DHT22;4781;48.776;9.200;2023-04-01T19:19:34;8.90;99.90
9486;DHT22;4781;48.776;9.200;2023-04-01T19:22:30;8.90;99.90
9486;DHT22;4781;48.776;9.200;2023-04-01T19:31:28;8.80;99.90
9486;DHT22;4781;48.776;9.200;2023-04-01T19:37:12;8.70;99.90
9486;DHT22;4781;48.776;9.200;2023-04-01T19:48:59;8.60;99.90
9486;DHT22;4781;48.776;9.200;2023-04-01T19:52:20;8.60;99.90
9486;DHT22;4781;48.776;9.200;2023-04-01T19:57:57;8.70;99.90
9486;DHT22;4781;48.776;9.200;2023-04-01T20:00:34;8.60;99.90
9486;DHT22;4781;48.776;9.200;2023-04-01T20:06:08;8.70;99.90
9486;DHT22;4781;48.776;9.200;2023-04-01T20:14:52;8.70;99.90
9486;DHT22;4781;48.776;9.200;2023-04-01T20:25:55;8.70;99.90
9486;DHT22;4781;48.776;9.200;2023-04-01T20:28:42;8.70;99.90
9486;DHT22;4781;48.776;9.200;2023-04-01T20:34:19;8.80;99.90
9486;DHT22;4781;48.776;9.200;2023-04-01T20:37:12;8.80;99.90
9486;DHT22;4781;48.776;9.200;2023-04-01T20:40:47;8.80;99.90
9486;DHT22;4781;48.776;9.200;2023-04-01T20:45:31;8.80;99.90
9486;DHT22;4781;48.776;9.200;2023-04-01T20:48:39;8.80;99.90
9486;DHT22;4781;48.776;9.200;2023-04-01T20:51:24;8.80;99.90
9486;DHT22;4781;48.776;9.200;2023-04-01T20:57:05;8.80;99.90
9486;DHT22;4781;48.776;9.200;2023-04-01T21:11:35;8.80;99.90
9486;DHT22;4781;48.776;9.200;2023-04-01T21:20:38;8.80;99.90
9486;DHT22;4781;48.776;9.200;2023-04-01T21:23:41;8.80;99.90
9486;DHT22;4781;48.776;9.200;2023-04-01T21:29:40;8.80;99.90
9486;DHT22;4781;48.776;9.200;2023-04-01T21:41:29;8.80;99.90
9486;DHT22;4781;48.776;9.200;2023-04-01T21:53:37;8.80;99.90
9486;DHT22;4781;48.776;9.200;2023-04-01T21:59:36;8.70;99.90
9486;DHT22;4781;48.776;9.200;2023-04-01T22:02:25;8.80;99.90
9486;DHT22;4781;48.776;9.200;2023-04-01T22:05:26;8.70;99.90
9486;DHT22;4781;48.776;9.200;2023-04-01T22:08:36;8.70;99.90
9486;DHT22;4781;48.776;9.200;2023-04-01T22:11:17;8.70;99.90
9486;DHT22;4781;48.776;9.200;2023-04-01T22:14:00;8.60;99.90
9486;DHT22;4781;48.776;9.200;2023-04-01T22:19:52;8.60;99.90
9486;DHT22;4781;48.776;9.200;2023-04-01T22:25:47;8.50;99.90
9486;DHT22;4781;48.776;9.200;2023-04-01T22:29:03;8.50;99.90
9486;DHT22;4781;48.776;9.200;2023-04-01T22:37:58;8.50;99.90
9486;DHT22;4781;48.776;9.200;2023-04-01T22:40:42;8.50;99.90
9486;DHT22;4781;48.776;9.200;2023-04-01T22:43:18;8.50;99.90
9486;DHT22;4781;48.776;9.200;2023-04-01T22:48:54;8.50;99.90
9486;DHT22;4781;48.776;9.200;2023-04-01T22:51:42;8.50;99.90
9486;DHT22;4781;48.776;9.200;2023-04-01T22:54:37;8.50;99.90
9486;DHT22;4781;48.776;9.200;2023-04-01T23:00:19;8.50;99.90
9486;DHT22;4781;48.776;9.200;2023-04-01T23:03:14;8.50;99.90
9486;DHT22;4781;48.776;9.200;2023-04-01T23:05:57;8.50;99.90
9486;DHT22;4781;48.776;9.200;2023-04-01T23:09:02;8.50;99.90
9486;DHT22;4781;48.776;9.200;2023-04-01T23:11:48;8.50;99.90
9486;DHT22;4781;48.776;9.200;2023-04-01T23:14:29;8.50;99.90
9486;DHT22;4781;48.776;9.200;2023-04-01T23:17:29;8.50;99.90
9486;DHT22;4781;48.776;9.200;2023-04-01T23:20:25;8.50;99.90
9486;DHT22;4781;48.776;9.200;2023-04-01T23:29:15;8.40;99.90
9486;DHT22;4781;48.776;9.200;2023-04-01T23:31:45;8.40;99.90
9486;DHT22;4781;48.776;9.200;2023-04-01T23:34:30;8.40;99.90
9486;DHT22;4781;48.776;9.200;2023-04-01T23:37:12;8.40;99.90
9486;DHT22;4781;48.776;9.200;2023-04-01T23:39:45;8.40;99.90
9486;DHT22;4781;48.776;9.200;2023-04-01T23:42:32;8.40;99.90
9486;DHT22;4781;48.776;9.200;2023-04-01T23:45:14;8.40;99.90
9486;DHT22;4781;48.776;9.200;2023-04-01T23:47:47;8.40;99.90
9486;DHT22;4781;48.776;9.200;2023-04-01T23:50:18;8.40;99.90
9486;DHT22;4781;48.776;9.200;2023-04-01T23:52:59;8.40;99.90
9486;DHT22;4781;48.776;9.200;2023-04-01T23:55:31;8.40;99.90
